createdAt,value
2018-01-14T00:00:18.079Z,15.35
2018-01-14T00:02:46.502Z,21.98
2018-01-14T00:05:15.368Z,22.10
2018-01-14T00:07:43.570Z,16.83
2018-01-14T00:10:11.706Z,17.17
2018-01-14T00:12:40.588Z,17.83
2018-01-14T00:15:09.474Z,19.15
2018-01-14T00:17:39.296Z,17.33
2018-01-14T00:20:08.190Z,20.00
2018-01-14T00:22:37.106Z,18.23
2018-01-14T00:25:05.217Z,20.00
2018-01-14T00:27:33.350Z,20.10
2018-01-14T00:30:01.470Z,20.85
2018-01-14T00:32:29.584Z,21.75
2018-01-14T00:34:57.802Z,24.73
2018-01-14T00:37:26.150Z,22.45
2018-01-14T00:39:54.296Z,21.17
2018-01-14T00:42:22.622Z,16.77
2018-01-14T00:44:50.740Z,18.67
2018-01-14T00:47:19.643Z,17.50
2018-01-14T00:49:47.769Z,17.77
2018-01-14T00:52:16.929Z,16.62
2018-01-14T00:54:45.045Z,17.00
2018-01-14T00:57:13.231Z,17.73
2018-01-14T00:59:42.119Z,20.50
2018-01-14T01:02:11.007Z,19.07
2018-01-14T01:04:39.902Z,19.50
2018-01-14T01:07:08.798Z,21.23
2018-01-14T01:09:42.414Z,19.67
2018-01-14T01:12:10.668Z,16.92
2018-01-14T01:14:39.616Z,20.58
2018-01-14T01:17:07.727Z,16.70
2018-01-14T01:19:36.620Z,19.12
2018-01-14T01:22:05.609Z,18.08
2018-01-14T01:24:34.851Z,17.37
2018-01-14T01:27:02.964Z,18.50
2018-01-14T01:29:31.155Z,16.20
2018-01-14T01:32:00.829Z,21.70
2018-01-14T01:34:29.137Z,18.25
2018-01-14T01:36:57.351Z,15.57
2018-01-14T01:39:25.474Z,17.90
2018-01-14T01:41:53.594Z,14.68
2018-01-14T01:44:21.723Z,13.52
2018-01-14T01:46:50.641Z,13.95
2018-01-14T01:49:19.346Z,13.73
2018-01-14T01:51:47.751Z,14.15
2018-01-14T01:54:15.858Z,18.90
2018-01-14T01:56:44.754Z,15.60
2018-01-14T01:59:13.927Z,15.07
2018-01-14T02:01:42.064Z,18.13
2018-01-14T02:04:10.301Z,14.77
2018-01-14T02:06:38.580Z,15.75
2018-01-14T02:09:07.499Z,14.13
2018-01-14T02:11:35.594Z,12.85
2018-01-14T02:14:03.728Z,12.27
2018-01-14T02:16:31.843Z,15.10
2018-01-14T02:18:59.985Z,12.70
2018-01-14T02:21:28.113Z,11.18
2018-01-14T02:23:57.341Z,13.97
2018-01-14T02:26:25.477Z,15.55
2018-01-14T02:28:53.601Z,14.75
2018-01-14T02:31:21.768Z,13.30
2018-01-14T02:33:50.661Z,14.48
2018-01-14T02:36:18.855Z,15.70
2018-01-14T02:38:46.979Z,15.50
2018-01-14T02:41:15.078Z,12.05
2018-01-14T02:43:43.211Z,14.18
2018-01-14T02:46:12.098Z,16.73
2018-01-14T02:48:40.235Z,14.18
2018-01-14T02:51:08.354Z,11.68
2018-01-14T02:53:37.238Z,12.73
2018-01-14T02:56:06.134Z,13.88
2018-01-14T02:58:35.014Z,13.55
2018-01-14T03:01:03.903Z,14.70
2018-01-14T03:03:32.907Z,12.82
2018-01-14T03:06:01.803Z,12.43
2018-01-14T03:08:30.682Z,13.18
2018-01-14T03:10:59.557Z,16.02
2018-01-14T03:13:28.458Z,14.40
2018-01-14T03:16:03.318Z,11.07
2018-01-14T03:18:31.429Z,14.13
2018-01-14T03:20:59.550Z,12.80
2018-01-14T03:23:28.477Z,15.60
2018-01-14T03:25:56.582Z,10.80
2018-01-14T03:28:25.468Z,12.55
2018-01-14T03:30:53.604Z,12.98
2018-01-14T03:33:21.726Z,11.30
2018-01-14T03:35:50.613Z,10.35
2018-01-14T03:38:19.493Z,11.57
2018-01-14T03:40:48.428Z,14.75
2018-01-14T03:43:16.529Z,10.48
2018-01-14T03:45:44.665Z,12.40
2018-01-14T03:48:12.797Z,12.52
2018-01-14T03:50:40.920Z,13.25
2018-01-14T03:53:09.064Z,11.07
2018-01-14T03:55:37.995Z,12.47
2018-01-14T03:58:06.179Z,9.95
2018-01-14T04:00:34.367Z,10.40
2018-01-14T04:03:02.495Z,11.27
2018-01-14T04:05:30.634Z,11.90
2018-01-14T04:07:59.521Z,11.38
2018-01-14T04:10:28.420Z,11.47
2018-01-14T04:12:57.319Z,12.20
2018-01-14T04:15:25.462Z,12.75
2018-01-14T04:17:53.646Z,12.25
2018-01-14T04:20:22.526Z,11.65
2018-01-14T04:22:50.706Z,10.18
2018-01-14T04:25:19.586Z,11.90
2018-01-14T04:27:47.732Z,11.68
2018-01-14T04:30:15.885Z,11.23
2018-01-14T04:32:44.011Z,14.15
2018-01-14T04:35:12.127Z,11.90
2018-01-14T04:37:40.238Z,11.32
2018-01-14T04:40:08.367Z,13.37
2018-01-14T04:42:36.480Z,12.90
2018-01-14T04:45:04.621Z,12.63
2018-01-14T04:47:32.745Z,10.45
2018-01-14T04:50:01.641Z,12.40
2018-01-14T04:52:29.765Z,11.70
2018-01-14T04:54:57.890Z,14.25
2018-01-14T04:57:26.777Z,9.50
2018-01-14T04:59:55.664Z,11.07
2018-01-14T05:02:24.579Z,12.98
2018-01-14T05:04:52.698Z,10.45
2018-01-14T05:07:20.843Z,11.15
2018-01-14T05:09:49.005Z,10.97
2018-01-14T05:12:17.872Z,11.63
2018-01-14T05:14:46.034Z,10.48
2018-01-14T05:17:14.915Z,12.20
2018-01-14T05:19:43.076Z,11.85
2018-01-14T05:22:11.199Z,10.85
2018-01-14T05:24:39.339Z,14.57
2018-01-14T05:27:07.459Z,12.32
2018-01-14T05:29:35.586Z,13.32
2018-01-14T05:32:04.478Z,10.20
2018-01-14T05:34:32.605Z,11.93
2018-01-14T05:37:00.721Z,11.18
2018-01-14T05:39:29.611Z,9.60
2018-01-14T05:41:58.484Z,13.13
2018-01-14T05:44:26.633Z,10.40
2018-01-14T05:46:54.760Z,12.52
2018-01-14T05:49:22.894Z,11.57
2018-01-14T05:51:51.018Z,10.95
2018-01-14T05:54:19.169Z,11.27
2018-01-14T05:56:48.054Z,11.77
2018-01-14T05:59:16.932Z,12.37
2018-01-14T06:01:45.061Z,15.50
2018-01-14T06:04:13.192Z,11.48
2018-01-14T06:06:42.082Z,11.77
2018-01-14T06:09:10.966Z,13.57
2018-01-14T06:11:39.850Z,11.12
2018-01-14T06:14:08.844Z,10.35
2018-01-14T06:16:37.719Z,12.63
2018-01-14T06:19:06.202Z,11.07
2018-01-14T06:21:35.095Z,8.32
2018-01-14T06:24:04.006Z,10.48
2018-01-14T06:26:32.884Z,11.20
2018-01-14T06:29:01.766Z,11.50
2018-01-14T06:31:30.761Z,10.57
2018-01-14T06:33:59.647Z,10.50
2018-01-14T06:36:27.779Z,12.10
2018-01-14T06:38:55.993Z,13.57
2018-01-14T06:41:24.976Z,10.07
2018-01-14T06:43:53.082Z,11.10
2018-01-14T06:46:21.234Z,10.30
2018-01-14T06:48:50.115Z,12.13
2018-01-14T06:51:18.250Z,12.00
2018-01-14T06:53:46.379Z,10.80
2018-01-14T06:56:15.253Z,9.85
2018-01-14T06:58:44.149Z,12.27
2018-01-14T07:01:13.067Z,11.20
2018-01-14T07:03:41.200Z,10.52
2018-01-14T07:06:09.382Z,9.57
2018-01-14T07:08:38.337Z,11.57
2018-01-14T07:11:06.444Z,13.00
2018-01-14T07:13:35.329Z,19.20
2018-01-14T07:16:04.227Z,17.25
2018-01-14T07:18:33.212Z,18.15
2018-01-14T07:21:02.115Z,15.73
2018-01-14T07:23:31.000Z,17.95
2018-01-14T07:25:59.906Z,18.08
2018-01-14T07:28:28.973Z,14.87
2018-01-14T07:30:57.102Z,14.82
2018-01-14T07:33:25.234Z,22.40
2018-01-14T07:35:54.132Z,19.27
2018-01-14T07:38:22.280Z,19.80
2018-01-14T07:40:50.400Z,17.23
2018-01-14T07:43:18.640Z,18.25
2018-01-14T07:45:47.520Z,20.88
2018-01-14T07:48:15.651Z,16.95
2018-01-14T07:50:43.793Z,18.75
2018-01-14T07:53:11.903Z,17.70
2018-01-14T07:55:40.055Z,17.92
2018-01-14T07:58:08.194Z,17.25
2018-01-14T08:00:36.993Z,18.33
2018-01-14T08:03:05.143Z,18.70
2018-01-14T08:05:34.030Z,67.25
2018-01-14T08:08:02.938Z,76.40
2018-01-14T08:10:31.071Z,20.40
2018-01-14T08:12:59.193Z,21.40
2018-01-14T08:15:27.324Z,21.20
2018-01-14T08:17:56.999Z,16.27
2018-01-14T08:20:25.190Z,15.75
2018-01-14T08:22:54.022Z,17.42
2018-01-14T08:25:22.928Z,15.33
2018-01-14T08:27:51.080Z,16.95
2018-01-14T08:30:20.010Z,15.43
2018-01-14T08:32:48.119Z,15.85
2018-01-14T08:35:16.253Z,16.08
2018-01-14T08:37:44.476Z,16.65
2018-01-14T08:40:13.378Z,18.30
2018-01-14T08:42:42.280Z,18.35
2018-01-14T08:45:10.431Z,16.17
2018-01-14T08:47:39.340Z,15.63
2018-01-14T08:50:07.479Z,17.08
2018-01-14T08:52:35.609Z,15.18
2018-01-14T08:55:03.822Z,14.33
2018-01-14T08:57:31.938Z,16.55
2018-01-14T09:00:00.100Z,17.60
2018-01-14T09:02:28.977Z,30.65
2018-01-14T09:04:57.889Z,22.48
2018-01-14T09:07:41.474Z,15.60
2018-01-14T09:10:10.828Z,18.53
2018-01-14T09:12:38.958Z,18.27
2018-01-14T09:15:07.110Z,15.57
2018-01-14T09:17:36.001Z,17.80
2018-01-14T09:20:04.906Z,18.08
2018-01-14T09:22:33.034Z,16.48
2018-01-14T09:25:01.197Z,15.67
2018-01-14T09:27:29.301Z,15.73
2018-01-14T09:29:58.214Z,17.83
2018-01-14T09:32:26.338Z,18.95
2018-01-14T09:34:54.474Z,36.45
2018-01-14T09:37:22.638Z,29.58
2018-01-14T09:39:50.802Z,24.25
2018-01-14T09:42:18.936Z,44.97
2018-01-14T09:44:47.068Z,76.82
2018-01-14T09:47:15.203Z,20.83
2018-01-14T09:49:44.122Z,26.55
2018-01-14T09:52:12.247Z,31.33
2018-01-14T09:54:40.381Z,29.77
2018-01-14T09:57:08.522Z,20.25
2018-01-14T09:59:36.668Z,15.38
2018-01-14T10:02:05.578Z,19.57
2018-01-14T10:04:34.544Z,19.17
2018-01-14T10:07:02.696Z,17.70
2018-01-14T10:09:30.813Z,16.00
2018-01-14T10:11:59.014Z,16.05
2018-01-14T10:14:27.126Z,21.12
2018-01-14T10:16:55.269Z,16.25
2018-01-14T10:19:23.389Z,16.80
2018-01-14T10:21:52.286Z,16.45
2018-01-14T10:24:21.217Z,17.40
2018-01-14T10:26:49.350Z,15.90
2018-01-14T10:29:18.274Z,15.80
2018-01-14T10:31:46.407Z,17.25
2018-01-14T10:34:15.296Z,22.17
2018-01-14T10:36:44.201Z,19.15
2018-01-14T10:39:12.360Z,20.83
2018-01-14T10:41:41.276Z,18.15
2018-01-14T10:44:09.413Z,16.02
2018-01-14T10:46:38.680Z,15.90
2018-01-14T10:49:06.823Z,16.48
2018-01-14T10:51:34.935Z,14.52
2018-01-14T10:54:03.116Z,12.40
2018-01-14T10:56:31.295Z,14.10
2018-01-14T10:59:00.740Z,13.98
2018-01-14T11:01:31.496Z,13.80
2018-01-14T11:03:59.639Z,14.02
2018-01-14T11:06:27.772Z,13.65
2018-01-14T11:08:55.897Z,13.35
2018-01-14T11:11:24.074Z,11.82
2018-01-14T11:13:52.177Z,10.70
2018-01-14T11:16:20.369Z,12.23
2018-01-14T11:18:49.262Z,13.05
2018-01-14T11:21:18.151Z,20.98
2018-01-14T11:23:47.065Z,12.80
2018-01-14T11:26:15.199Z,13.27
2018-01-14T11:28:43.339Z,16.52
2018-01-14T11:31:11.464Z,14.15
2018-01-14T11:33:39.661Z,14.23
2018-01-14T11:36:07.749Z,12.45
2018-01-14T11:38:35.873Z,10.90
2018-01-14T11:41:04.021Z,11.35
2018-01-14T11:43:32.217Z,13.65
2018-01-14T11:46:00.374Z,12.73
2018-01-14T11:48:28.653Z,13.25
2018-01-14T11:50:56.808Z,17.15
2018-01-14T11:53:24.941Z,13.93
2018-01-14T11:55:53.113Z,12.65
2018-01-14T11:58:21.268Z,13.30
2018-01-14T12:00:50.165Z,11.30
2018-01-14T12:03:19.073Z,11.57
2018-01-14T12:05:47.236Z,15.02
2018-01-14T12:08:16.129Z,12.90
2018-01-14T12:10:44.272Z,14.10
2018-01-14T12:13:12.390Z,12.15
2018-01-14T12:15:40.542Z,14.40
2018-01-14T12:18:08.666Z,15.55
2018-01-14T12:20:36.808Z,16.80
2018-01-14T12:23:04.952Z,15.35
2018-01-14T12:25:33.843Z,13.40
2018-01-14T12:28:01.977Z,10.38
2018-01-14T12:30:30.110Z,10.93
2018-01-14T12:33:03.795Z,12.27
2018-01-14T12:35:31.939Z,12.80
2018-01-14T12:38:00.063Z,10.35
2018-01-14T12:40:28.188Z,9.77
2018-01-14T12:42:57.111Z,12.13
2018-01-14T12:45:25.236Z,10.70
2018-01-14T12:47:53.348Z,13.20
2018-01-14T12:50:21.503Z,11.52
2018-01-14T12:52:50.403Z,9.20
2018-01-14T12:55:19.299Z,8.43
2018-01-14T12:57:47.409Z,11.95
2018-01-14T13:00:15.562Z,9.50
2018-01-14T13:02:43.692Z,9.50
2018-01-14T13:05:11.816Z,15.60
2018-01-14T13:07:39.955Z,15.52
2018-01-14T13:10:08.840Z,8.17
2018-01-14T13:12:37.766Z,11.77
2018-01-14T13:15:05.875Z,11.52
2018-01-14T13:17:34.038Z,10.38
2018-01-14T13:20:02.145Z,10.23
2018-01-14T13:22:31.072Z,10.77
2018-01-14T13:24:59.222Z,11.80
2018-01-14T13:27:27.433Z,12.23
2018-01-14T13:29:56.265Z,12.68
2018-01-14T13:32:25.162Z,12.98
2018-01-14T13:34:54.046Z,13.55
2018-01-14T13:37:22.952Z,14.30
2018-01-14T13:39:51.192Z,15.00
2018-01-14T13:42:19.327Z,11.07
2018-01-14T13:44:47.458Z,13.88
2018-01-14T13:47:16.348Z,12.73
2018-01-14T13:49:45.291Z,10.23
2018-01-14T13:52:13.389Z,10.55
2018-01-14T13:54:41.530Z,12.60
2018-01-14T13:57:09.659Z,10.40
2018-01-14T13:59:38.636Z,11.32
2018-01-14T14:02:07.551Z,11.57
2018-01-14T14:04:36.423Z,10.48
2018-01-14T14:07:05.376Z,10.80
2018-01-14T14:09:33.530Z,11.03
2018-01-14T14:12:01.628Z,11.07
2018-01-14T14:14:29.764Z,9.75
2018-01-14T14:16:57.926Z,9.80
2018-01-14T14:19:26.819Z,9.35
2018-01-14T14:21:54.930Z,8.80
2018-01-14T14:24:23.057Z,12.77
2018-01-14T14:26:51.240Z,10.60
2018-01-14T14:29:19.386Z,11.80
2018-01-14T14:31:48.305Z,10.73
2018-01-14T14:34:16.453Z,10.20
2018-01-14T14:36:45.346Z,8.57
2018-01-14T14:39:14.372Z,10.65
2018-01-14T14:41:42.511Z,19.73
2018-01-14T14:44:11.417Z,10.52
2018-01-14T14:46:39.566Z,11.43
2018-01-14T14:49:08.469Z,10.13
2018-01-14T14:51:36.631Z,9.80
2018-01-14T14:54:05.528Z,9.07
2018-01-14T14:56:34.519Z,9.65
2018-01-14T14:59:03.525Z,9.70
2018-01-14T15:01:32.386Z,10.20
2018-01-14T15:04:01.285Z,7.80
2018-01-14T15:06:30.190Z,10.38
2018-01-14T15:08:58.356Z,11.20
2018-01-14T15:11:27.260Z,12.50
2018-01-14T15:13:55.398Z,15.35
2018-01-14T15:16:23.539Z,16.85
2018-01-14T15:18:51.730Z,11.95
2018-01-14T15:21:19.829Z,10.70
2018-01-14T15:23:47.981Z,14.30
2018-01-14T15:26:16.185Z,12.70
2018-01-14T15:28:45.101Z,10.60
2018-01-14T15:31:14.147Z,9.30
2018-01-14T15:33:42.269Z,9.82
2018-01-14T15:36:10.425Z,10.40
2018-01-14T15:38:38.532Z,9.87
2018-01-14T15:41:06.697Z,11.02
2018-01-14T15:43:34.907Z,10.45
2018-01-14T15:46:03.045Z,9.85
2018-01-14T15:48:31.164Z,10.15
2018-01-14T15:51:00.074Z,13.43
2018-01-14T15:53:28.227Z,11.12
2018-01-14T15:55:56.377Z,11.35
2018-01-14T15:58:24.564Z,11.55
2018-01-14T16:00:52.688Z,12.70
2018-01-14T16:03:20.836Z,13.95
2018-01-14T16:05:49.748Z,14.80
2018-01-14T16:08:17.872Z,18.77
2018-01-14T16:10:46.781Z,23.05
2018-01-14T16:13:14.978Z,14.90
2018-01-14T16:15:43.152Z,13.27
2018-01-14T16:18:11.268Z,18.00
2018-01-14T16:20:39.409Z,14.82
2018-01-14T16:23:07.649Z,16.62
2018-01-14T16:25:36.617Z,15.53
2018-01-14T16:28:04.804Z,15.07
2018-01-14T16:30:33.713Z,14.07
2018-01-14T16:33:01.841Z,19.90
2018-01-14T16:35:30.426Z,17.65
2018-01-14T16:37:58.703Z,15.38
2018-01-14T16:40:26.848Z,14.20
2018-01-14T16:42:54.966Z,14.38
2018-01-14T16:45:23.875Z,14.13
2018-01-14T16:47:52.007Z,16.40
2018-01-14T16:50:20.166Z,16.98
2018-01-14T16:52:48.485Z,15.70
2018-01-14T16:55:17.411Z,16.33
2018-01-14T16:57:45.548Z,18.42
2018-01-14T17:00:14.481Z,15.52
2018-01-14T17:02:42.845Z,15.05
2018-01-14T17:05:10.994Z,14.80
2018-01-14T17:07:39.903Z,16.55
2018-01-14T17:10:08.051Z,18.00
2018-01-14T17:12:36.938Z,13.93
2018-01-14T17:15:05.096Z,18.83
2018-01-14T17:17:33.389Z,15.77
2018-01-14T17:20:01.516Z,16.65
2018-01-14T17:22:29.680Z,17.52
2018-01-14T17:24:57.807Z,15.35
2018-01-14T17:27:26.729Z,15.45
2018-01-14T17:29:55.253Z,13.27
2018-01-14T17:32:23.639Z,14.40
2018-01-14T17:34:51.810Z,15.80
2018-01-14T17:37:19.919Z,16.52
2018-01-14T17:39:48.065Z,14.70
2018-01-14T17:42:17.013Z,17.65
2018-01-14T17:44:45.127Z,16.62
2018-01-14T17:47:14.039Z,17.98
2018-01-14T17:49:42.166Z,25.67
2018-01-14T17:52:10.573Z,22.60
2018-01-14T17:54:39.629Z,17.75
2018-01-14T17:57:07.747Z,17.40
2018-01-14T17:59:36.655Z,16.83
2018-01-14T18:02:04.843Z,16.07
2018-01-14T18:04:33.598Z,15.80
2018-01-14T18:07:02.110Z,17.48
2018-01-14T18:09:30.417Z,16.97
2018-01-14T18:11:58.592Z,17.33
2018-01-14T18:14:26.754Z,20.40
2018-01-14T18:17:00.200Z,18.35
2018-01-14T18:19:29.083Z,16.67
2018-01-14T18:21:58.012Z,20.55
2018-01-14T18:24:26.163Z,16.60
2018-01-14T18:26:54.287Z,16.27
2018-01-14T18:29:22.427Z,20.30
2018-01-14T18:31:50.590Z,17.60
2018-01-14T18:34:19.603Z,17.80
2018-01-14T18:36:47.752Z,16.35
2018-01-14T18:39:15.890Z,17.62
2018-01-14T18:41:44.814Z,17.30
2018-01-14T18:44:12.951Z,16.23
2018-01-14T18:46:41.916Z,17.35
2018-01-14T18:49:11.945Z,17.40
2018-01-14T18:51:41.146Z,15.00
2018-01-14T18:54:09.277Z,18.50
2018-01-14T18:56:37.417Z,19.92
2018-01-14T18:59:06.358Z,18.90
2018-01-14T19:01:34.506Z,16.30
2018-01-14T19:04:03.329Z,16.10
2018-01-14T19:06:31.538Z,19.10
2018-01-14T19:09:00.471Z,17.77
2018-01-14T19:11:28.775Z,17.35
2018-01-14T19:13:56.900Z,14.90
2018-01-14T19:16:25.063Z,19.30
2018-01-14T19:18:53.192Z,17.30
2018-01-14T19:21:21.348Z,20.92
2018-01-14T19:23:49.662Z,20.30
2018-01-14T19:26:17.798Z,15.50
2018-01-14T19:28:45.947Z,15.57
2018-01-14T19:31:18.948Z,18.73
2018-01-14T19:33:47.214Z,16.50
2018-01-14T19:36:15.375Z,17.83
2018-01-14T19:38:43.982Z,16.02
2018-01-14T19:41:12.136Z,15.45
2018-01-14T19:43:41.080Z,15.73
2018-01-14T19:46:09.980Z,18.02
2018-01-14T19:48:38.886Z,16.30
2018-01-14T19:51:07.054Z,17.42
2018-01-14T19:53:36.024Z,15.73
2018-01-14T19:56:04.241Z,16.23
2018-01-14T19:58:32.372Z,19.10
2018-01-14T20:01:00.547Z,15.93
2018-01-14T20:03:29.520Z,14.02
2018-01-14T20:05:58.494Z,14.80
2018-01-14T20:08:26.684Z,15.32
2018-01-14T20:10:57.974Z,16.85
2018-01-14T20:13:27.097Z,18.98
2018-01-14T20:15:55.266Z,18.37
2018-01-14T20:18:23.454Z,27.95
2018-01-14T20:20:51.633Z,16.25
2018-01-14T20:23:21.300Z,17.37
2018-01-14T20:25:49.481Z,16.80
2018-01-14T20:28:17.623Z,15.10
2018-01-14T20:30:46.232Z,14.52
2018-01-14T20:33:14.379Z,17.52
2018-01-14T20:35:43.282Z,18.45
2018-01-14T20:38:11.442Z,21.50
2018-01-14T20:40:40.416Z,16.53
2018-01-14T20:43:08.611Z,13.70
2018-01-14T20:45:37.546Z,14.00
2018-01-14T20:48:05.682Z,14.25
2018-01-14T20:50:34.582Z,15.20
2018-01-14T20:53:02.745Z,13.07
2018-01-14T20:55:32.058Z,13.17
2018-01-14T20:58:01.000Z,13.98
2018-01-14T21:00:29.152Z,14.07
2018-01-14T21:02:57.304Z,14.63
2018-01-14T21:05:25.469Z,15.07
2018-01-14T21:07:53.623Z,16.98
2018-01-14T21:10:22.574Z,18.90
2018-01-14T21:12:50.790Z,26.92
2018-01-14T21:15:19.705Z,21.73
2018-01-14T21:17:47.873Z,30.10
2018-01-14T21:20:15.996Z,21.62
2018-01-14T21:22:44.158Z,15.15
2018-01-14T21:25:12.556Z,16.87
2018-01-14T21:27:40.972Z,16.15
2018-01-14T21:30:09.140Z,14.07
2018-01-14T21:32:37.236Z,21.60
2018-01-14T21:35:05.373Z,20.65
2018-01-14T21:37:33.593Z,23.65
2018-01-14T21:40:01.743Z,17.10
2018-01-14T21:42:29.891Z,16.62
2018-01-14T21:44:58.817Z,15.95
2018-01-14T21:47:26.950Z,17.40
2018-01-14T21:49:55.930Z,16.83
2018-01-14T21:52:24.063Z,15.40
2018-01-14T21:54:52.201Z,18.50
2018-01-14T21:57:20.375Z,15.43
2018-01-14T21:59:48.531Z,15.45
2018-01-14T22:02:16.663Z,16.42
2018-01-14T22:04:44.774Z,16.65
2018-01-14T22:07:12.936Z,15.80
2018-01-14T22:09:41.059Z,14.57
2018-01-14T22:12:09.210Z,17.83
2018-01-14T22:14:37.653Z,16.30
2018-01-14T22:17:06.543Z,15.55
2018-01-14T22:19:35.480Z,18.23
2018-01-14T22:22:03.621Z,15.68
2018-01-14T22:24:32.513Z,22.03
2018-01-14T22:27:00.663Z,22.55
2018-01-14T22:29:28.800Z,19.02
2018-01-14T22:31:57.013Z,19.00
2018-01-14T22:34:25.903Z,19.80
2018-01-14T22:36:54.017Z,20.50
2018-01-14T22:39:22.160Z,16.47
2018-01-14T22:41:51.067Z,13.88
2018-01-14T22:44:19.196Z,14.27
2018-01-14T22:46:47.324Z,20.23
2018-01-14T22:49:15.478Z,13.90
2018-01-14T22:51:43.599Z,16.10
2018-01-14T22:54:11.748Z,15.10
2018-01-14T22:56:39.866Z,16.17
2018-01-14T22:59:07.989Z,17.67
2018-01-14T23:01:36.731Z,13.88
2018-01-14T23:04:05.831Z,16.15
2018-01-14T23:06:34.737Z,16.87
2018-01-14T23:09:02.868Z,18.10
2018-01-14T23:11:30.997Z,15.27
2018-01-14T23:13:59.121Z,15.70
2018-01-14T23:16:27.244Z,18.58
2018-01-14T23:18:55.383Z,15.20
2018-01-14T23:21:24.638Z,15.55
2018-01-14T23:23:52.769Z,19.23
2018-01-14T23:26:20.902Z,14.82
2018-01-14T23:28:49.019Z,17.20
2018-01-14T23:31:17.158Z,19.17
2018-01-14T23:33:45.288Z,18.58
2018-01-14T23:36:13.422Z,17.58
2018-01-14T23:38:42.318Z,18.98
2018-01-14T23:41:10.460Z,17.73
2018-01-14T23:43:38.660Z,15.77
2018-01-14T23:46:07.553Z,18.12
2018-01-14T23:48:35.695Z,17.08
2018-01-14T23:51:03.883Z,18.92
2018-01-14T23:53:32.034Z,15.60
2018-01-14T23:56:00.167Z,14.27
2018-01-14T23:58:28.320Z,14.55
